Raugust, Washington
Current Conditions -  °F | °C
As of 1:52 PM on Thursday 20 Nov 2014 (Local Time) from KMWH Reporting Station
Haze Haze  
Wind Chill: 36°   Ceiling: Unl
Heat Index: 36°   Visibility: 5mi
Dew Point: 28°   Wind: 3mph
Humidity: 73%   Direction: 190°S
Pressure: 30.07"   Gusts: NA
Location:  47.1758°N, 119.289°W
Report Text: KMWH 202152Z 19003KT 5SM HZ CLR 02/M02 A3007 RMK AO2 SLP194 T00221022
Loading
Personal Weather Stations






























Interactive Weather Map New forecast layout! Learn more

10-Day Weather Forecast

Advertisements
Track Severe Weather on mobile